Weather at Kjeller Airport

Public forecast

Using degrees Celsius for public forecast. Weather courtesy of forecast.io.

Closest aviation weather report (METAR) to Kjeller Airport

Closest report is Oslo, Fornebu Airport, 13.4 nm (24.7 km) WSW. Retrieved 2021/04/17 15:20 UTC (12 minutes ago):

ENFB 171520Z AUTO 16014KT 9999NDV NCD ///// Q//// W///S4

Closest aviation forecast (TAF) to Kjeller Airport

Closest forecast is Oslo Gardermoen Airport, 13.6 nm (25.2 km) N. Retrieved 2021/04/17 12:57 UTC (3 hours ago):

TAF ENGM 171100Z 1712/1812 02008KT CAVOK